Lexington, Mississippi
Current Conditions -  °F | °C
As of 3:53 PM on Thursday 23 Oct 2014 (Local Time) from KGWO Reporting Station
Clear Clear  
Wind Chill: 62°   Ceiling: Unl
Heat Index: 62°   Visibility: 10mi
Dew Point: 49°   Wind: 5mph
Humidity: 62%   Direction: 340°NNW
Pressure: 30.12"   Gusts: NA
Location:  33.11°N, 90.05°W
Report Text: KGWO 232053Z AUTO 34004KT 10SM CLR 17/09 A3012 RMK AO2 SLP200 T01670094 55012 TSNO
Loading
Personal Weather Stations






























Interactive Weather Map
Tropical Storm Tracking
New forecast layout! Learn more

10-Day Weather Forecast

Advertisements
Track Severe Weather on mobile